Aérodrome :
LOGIN :

S'inscrire | Disclaimer

   EN    FR    IT 

 










Légende :    VFR   VFR Marginal   IFR   IFR Intensif   IFR Très Intensif
Visi : 
Plafond : 
>= 8 km
>= 3000ft
5 à 8 km
1000 à 3000 ft
1500m à 5 km
500 à 1000 ft
800 à 1500m
200 à 500 ft
< 800m
< 200 ft
Symboles :   Orages  Brouillard  Fortes neiges  Fortes précipitations  Vent > 20 kt
SIGMETs :   Divers  Orages  Givrage  Turbulence  Onde Orograph.  Cendres Volcan.







- Altitude de l'aérodrome : 126 ft
- Code IATA : TIA


LATI - Rinas Mother Teresa Arpt - Tirana

DERNIER METAR :
  • 242350Z 12003KT 9999 FEW014 16/15 Q1014 NOSIG

METARs EXPIRÉS :
  • 242320Z 17004KT 9999 FEW014 SCT018 17/15 Q1014 NOSIG
  • 242250Z 19003KT 150V210 9999 FEW014 SCT020 BKN025 17/15 Q1014 NOSIG
  • 242220Z 23003KT 180V270 9999 SCT024 17/15 Q1014 NOSIG
  • 242150Z VRB01KT 9999 FEW023 BKN096 17/15 Q1014 NOSIG
  • 242120Z 14003KT 9999 FEW023 BKN096 16/15 Q1014 NOSIG

TAF TAF LATI
Valide du 25 à 00h jusqu'au 26 à 00h UTC


242300Z 2500/2524 VRB03KT 9999 FEW020 SCT040 TX25/2512Z TN13/2504Z
TEMPO 2509/2517 26010KT FEW030TCU SCT080
BECMG 2517/2519 CAVOK
Pas de NOTAMs connus pour ce terrain.



MET'MAP, la Météo Aéronautique d'un coup d'oeil ! - Copyright ORBIFLY Décembre 2007 - Disclaimer

ORBIFLY MET'MAP TEAM :

Programmation & Développement : Alexandra Zaïnal
Conception & Développement : Baudouin d'Aumeries
Co-Programmation & Développement : Marc-Olivier Méhu
Soutien technique & logistique : Manuel Goepfert

Contact : metmap@orbifly.com




SOURCES & CREDITS :

   NOAA